sensor_id;sensor_type;location;lat;lon;timestamp;temperature;humidity
15257;DHT22;7731;50.720;6.912;2023-04-06T00:01:59;2.90;99.90
15257;DHT22;7731;50.720;6.912;2023-04-06T00:04:30;2.90;99.90
15257;DHT22;7731;50.720;6.912;2023-04-06T00:07:03;2.80;99.90
15257;DHT22;7731;50.720;6.912;2023-04-06T00:09:34;2.80;99.90
15257;DHT22;7731;50.720;6.912;2023-04-06T00:12:07;2.90;99.90
15257;DHT22;7731;50.720;6.912;2023-04-06T00:14:37;2.80;99.90
15257;DHT22;7731;50.720;6.912;2023-04-06T00:17:10;2.80;99.90
15257;DHT22;7731;50.720;6.912;2023-04-06T00:19:41;2.70;99.90
15257;DHT22;7731;50.720;6.912;2023-04-06T00:22:14;2.70;99.90
15257;DHT22;7731;50.720;6.912;2023-04-06T00:24:44;2.80;99.90
15257;DHT22;7731;50.720;6.912;2023-04-06T00:27:17;2.80;99.90
15257;DHT22;7731;50.720;6.912;2023-04-06T00:29:48;2.80;99.90
15257;DHT22;7731;50.720;6.912;2023-04-06T00:32:18;2.80;99.90
15257;DHT22;7731;50.720;6.912;2023-04-06T00:34:49;2.70;99.90
15257;DHT22;7731;50.720;6.912;2023-04-06T00:37:22;2.70;99.90
15257;DHT22;7731;50.720;6.912;2023-04-06T00:39:52;2.70;99.90
15257;DHT22;7731;50.720;6.912;2023-04-06T00:42:23;2.60;99.90
15257;DHT22;7731;50.720;6.912;2023-04-06T00:44:58;2.60;99.90
15257;DHT22;7731;50.720;6.912;2023-04-06T00:47:29;2.60;99.90
15257;DHT22;7731;50.720;6.912;2023-04-06T00:50:00;2.60;99.90
15257;DHT22;7731;50.720;6.912;2023-04-06T00:52:36;2.60;99.90
15257;DHT22;7731;50.720;6.912;2023-04-06T00:55:09;2.40;99.90
15257;DHT22;7731;50.720;6.912;2023-04-06T00:57:39;2.40;99.90
15257;DHT22;7731;50.720;6.912;2023-04-06T01:00:12;2.40;99.90
15257;DHT22;7731;50.720;6.912;2023-04-06T01:02:43;2.30;99.90
15257;DHT22;7731;50.720;6.912;2023-04-06T01:05:16;2.30;99.90
15257;DHT22;7731;50.720;6.912;2023-04-06T01:07:49;2.30;99.90
15257;DHT22;7731;50.720;6.912;2023-04-06T01:10:24;2.30;99.90
15257;DHT22;7731;50.720;6.912;2023-04-06T01:12:54;2.30;99.90
15257;DHT22;7731;50.720;6.912;2023-04-06T01:15:26;2.30;99.90
15257;DHT22;7731;50.720;6.912;2023-04-06T01:17:58;2.30;99.90
15257;DHT22;7731;50.720;6.912;2023-04-06T01:20:32;2.30;99.90
15257;DHT22;7731;50.720;6.912;2023-04-06T01:23:05;2.30;99.90
15257;DHT22;7731;50.720;6.912;2023-04-06T01:25:35;2.30;99.90
15257;DHT22;7731;50.720;6.912;2023-04-06T01:28:05;2.20;99.90
15257;DHT22;7731;50.720;6.912;2023-04-06T01:30:36;2.10;99.90
15257;DHT22;7731;50.720;6.912;2023-04-06T01:33:07;2.10;99.90
15257;DHT22;7731;50.720;6.912;2023-04-06T01:35:38;2.00;99.90
15257;DHT22;7731;50.720;6.912;2023-04-06T01:38:12;2.00;99.90
15257;DHT22;7731;50.720;6.912;2023-04-06T01:40:42;1.90;99.90
15257;DHT22;7731;50.720;6.912;2023-04-06T01:43:14;1.90;99.90
15257;DHT22;7731;50.720;6.912;2023-04-06T01:45:44;1.90;99.90
15257;DHT22;7731;50.720;6.912;2023-04-06T01:48:17;1.90;99.90
15257;DHT22;7731;50.720;6.912;2023-04-06T01:50:50;2.00;99.90
15257;DHT22;7731;50.720;6.912;2023-04-06T01:53:30;2.00;99.90
15257;DHT22;7731;50.720;6.912;2023-04-06T01:56:01;2.00;99.90
15257;DHT22;7731;50.720;6.912;2023-04-06T01:58:32;2.00;99.90
15257;DHT22;7731;50.720;6.912;2023-04-06T02:01:03;2.00;99.90
15257;DHT22;7731;50.720;6.912;2023-04-06T02:03:34;2.00;99.90
15257;DHT22;7731;50.720;6.912;2023-04-06T02:06:04;1.90;99.90
15257;DHT22;7731;50.720;6.912;2023-04-06T02:08:38;1.80;99.90
15257;DHT22;7731;50.720;6.912;2023-04-06T02:11:08;1.70;99.90
15257;DHT22;7731;50.720;6.912;2023-04-06T02:13:38;1.70;99.90
15257;DHT22;7731;50.720;6.912;2023-04-06T02:16:09;1.60;99.90
15257;DHT22;7731;50.720;6.912;2023-04-06T02:18:39;1.60;99.90
15257;DHT22;7731;50.720;6.912;2023-04-06T02:21:10;1.60;99.90
15257;DHT22;7731;50.720;6.912;2023-04-06T02:23:43;1.50;99.90
15257;DHT22;7731;50.720;6.912;2023-04-06T02:26:13;1.40;99.90
15257;DHT22;7731;50.720;6.912;2023-04-06T02:28:44;1.30;99.90
15257;DHT22;7731;50.720;6.912;2023-04-06T02:31:14;1.30;99.90
15257;DHT22;7731;50.720;6.912;2023-04-06T02:33:45;1.30;99.90
15257;DHT22;7731;50.720;6.912;2023-04-06T02:36:15;1.30;99.90
15257;DHT22;7731;50.720;6.912;2023-04-06T02:38:48;1.30;99.90
15257;DHT22;7731;50.720;6.912;2023-04-06T02:41:19;1.30;99.90
15257;DHT22;7731;50.720;6.912;2023-04-06T02:43:49;1.30;99.90
15257;DHT22;7731;50.720;6.912;2023-04-06T02:46:19;1.30;99.90
15257;DHT22;7731;50.720;6.912;2023-04-06T02:48:50;1.30;99.90
15257;DHT22;7731;50.720;6.912;2023-04-06T02:51:21;1.30;99.90
15257;DHT22;7731;50.720;6.912;2023-04-06T02:53:55;1.30;99.90
15257;DHT22;7731;50.720;6.912;2023-04-06T02:56:27;1.30;99.90
15257;DHT22;7731;50.720;6.912;2023-04-06T02:58:58;1.40;99.90
15257;DHT22;7731;50.720;6.912;2023-04-06T03:01:28;1.40;99.90
15257;DHT22;7731;50.720;6.912;2023-04-06T03:03:59;1.40;99.90
15257;DHT22;7731;50.720;6.912;2023-04-06T03:06:29;1.40;99.90
15257;DHT22;7731;50.720;6.912;2023-04-06T03:09:06;1.30;99.90
15257;DHT22;7731;50.720;6.912;2023-04-06T03:11:38;1.40;99.90
15257;DHT22;7731;50.720;6.912;2023-04-06T03:14:08;1.40;99.90
15257;DHT22;7731;50.720;6.912;2023-04-06T03:16:40;1.40;99.90
15257;DHT22;7731;50.720;6.912;2023-04-06T03:19:10;1.40;99.90
15257;DHT22;7731;50.720;6.912;2023-04-06T03:21:41;1.40;99.90
15257;DHT22;7731;50.720;6.912;2023-04-06T03:24:14;1.40;99.90
15257;DHT22;7731;50.720;6.912;2023-04-06T03:26:44;1.40;99.90
15257;DHT22;7731;50.720;6.912;2023-04-06T03:29:16;1.40;99.90
15257;DHT22;7731;50.720;6.912;2023-04-06T03:31:46;1.40;99.90
15257;DHT22;7731;50.720;6.912;2023-04-06T03:34:17;1.40;99.90
15257;DHT22;7731;50.720;6.912;2023-04-06T03:36:48;1.30;99.90
15257;DHT22;7731;50.720;6.912;2023-04-06T03:39:38;1.30;99.90
15257;DHT22;7731;50.720;6.912;2023-04-06T03:42:08;1.30;99.90
15257;DHT22;7731;50.720;6.912;2023-04-06T03:44:39;1.20;99.90
15257;DHT22;7731;50.720;6.912;2023-04-06T03:47:09;1.20;99.90
15257;DHT22;7731;50.720;6.912;2023-04-06T03:49:39;1.10;99.90
15257;DHT22;7731;50.720;6.912;2023-04-06T03:52:10;1.10;99.90
15257;DHT22;7731;50.720;6.912;2023-04-06T03:54:43;1.10;99.90
15257;DHT22;7731;50.720;6.912;2023-04-06T03:57:14;1.10;99.90
15257;DHT22;7731;50.720;6.912;2023-04-06T03:59:44;1.10;99.90
15257;DHT22;7731;50.720;6.912;2023-04-06T04:02:14;1.10;99.90
15257;DHT22;7731;50.720;6.912;2023-04-06T04:04:45;1.10;99.90
15257;DHT22;7731;50.720;6.912;2023-04-06T04:07:15;1.20;99.90
15257;DHT22;7731;50.720;6.912;2023-04-06T04:09:49;1.20;99.90
15257;DHT22;7731;50.720;6.912;2023-04-06T04:12:20;1.20;99.90
15257;DHT22;7731;50.720;6.912;2023-04-06T04:14:50;1.20;99.90
15257;DHT22;7731;50.720;6.912;2023-04-06T04:17:21;1.30;99.90
15257;DHT22;7731;50.720;6.912;2023-04-06T04:19:52;1.30;99.90
15257;DHT22;7731;50.720;6.912;2023-04-06T04:22:23;1.30;99.90
15257;DHT22;7731;50.720;6.912;2023-04-06T04:24:57;1.20;99.90
15257;DHT22;7731;50.720;6.912;2023-04-06T04:27:27;1.20;99.90
15257;DHT22;7731;50.720;6.912;2023-04-06T04:29:58;1.20;99.90
15257;DHT22;7731;50.720;6.912;2023-04-06T04:32:28;1.30;99.90
15257;DHT22;7731;50.720;6.912;2023-04-06T04:34:59;1.20;99.90
15257;DHT22;7731;50.720;6.912;2023-04-06T04:37:29;1.30;99.90
15257;DHT22;7731;50.720;6.912;2023-04-06T04:40:08;1.30;99.90
15257;DHT22;7731;50.720;6.912;2023-04-06T04:42:39;1.20;99.90
15257;DHT22;7731;50.720;6.912;2023-04-06T04:45:10;1.30;99.90
15257;DHT22;7731;50.720;6.912;2023-04-06T04:47:41;1.40;99.90
15257;DHT22;7731;50.720;6.912;2023-04-06T04:50:11;1.40;99.90
15257;DHT22;7731;50.720;6.912;2023-04-06T04:52:42;1.40;99.90
15257;DHT22;7731;50.720;6.912;2023-04-06T04:55:15;1.40;99.90
15257;DHT22;7731;50.720;6.912;2023-04-06T04:57:46;1.40;99.90
15257;DHT22;7731;50.720;6.912;2023-04-06T05:00:16;1.50;99.90
15257;DHT22;7731;50.720;6.912;2023-04-06T05:02:52;1.50;99.90
15257;DHT22;7731;50.720;6.912;2023-04-06T05:05:22;1.70;99.90
15257;DHT22;7731;50.720;6.912;2023-04-06T05:07:53;1.70;99.90
15257;DHT22;7731;50.720;6.912;2023-04-06T05:10:26;1.80;99.90
15257;DHT22;7731;50.720;6.912;2023-04-06T05:12:57;1.90;99.90
15257;DHT22;7731;50.720;6.912;2023-04-06T05:15:27;2.00;99.90
15257;DHT22;7731;50.720;6.912;2023-04-06T05:17:58;2.00;99.90
15257;DHT22;7731;50.720;6.912;2023-04-06T05:20:28;2.30;99.90
15257;DHT22;7731;50.720;6.912;2023-04-06T05:22:59;2.30;99.90
15257;DHT22;7731;50.720;6.912;2023-04-06T05:25:32;2.40;99.90
15257;DHT22;7731;50.720;6.912;2023-04-06T05:28:02;2.50;99.90
15257;DHT22;7731;50.720;6.912;2023-04-06T05:30:33;2.60;99.90
15257;DHT22;7731;50.720;6.912;2023-04-06T05:33:05;2.60;99.90
15257;DHT22;7731;50.720;6.912;2023-04-06T05:35:36;2.80;89.70
15257;DHT22;7731;50.720;6.912;2023-04-06T05:38:08;2.90;88.00
15257;DHT22;7731;50.720;6.912;2023-04-06T05:40:44;3.10;69.10
15257;DHT22;7731;50.720;6.912;2023-04-06T05:43:14;3.20;50.30
15257;DHT22;7731;50.720;6.912;2023-04-06T05:45:48;3.30;45.80
15257;DHT22;7731;50.720;6.912;2023-04-06T05:48:26;3.50;28.90
15257;DHT22;7731;50.720;6.912;2023-04-06T05:50:56;3.70;26.40
15257;DHT22;7731;50.720;6.912;2023-04-06T05:53:27;3.80;15.30
15257;DHT22;7731;50.720;6.912;2023-04-06T05:56:04;4.00;10.50
15257;DHT22;7731;50.720;6.912;2023-04-06T05:58:36;4.10;1.00
15257;DHT22;7731;50.720;6.912;2023-04-06T06:01:06;4.30;1.00
15257;DHT22;7731;50.720;6.912;2023-04-06T06:03:37;4.40;1.00
15257;DHT22;7731;50.720;6.912;2023-04-06T06:06:07;4.60;1.00
15257;DHT22;7731;50.720;6.912;2023-04-06T06:08:37;4.60;1.00
15257;DHT22;7731;50.720;6.912;2023-04-06T06:11:10;4.80;1.00
15257;DHT22;7731;50.720;6.912;2023-04-06T06:13:41;4.90;1.00
15257;DHT22;7731;50.720;6.912;2023-04-06T06:16:11;5.00;1.00
15257;DHT22;7731;50.720;6.912;2023-04-06T06:18:42;5.10;1.00
15257;DHT22;7731;50.720;6.912;2023-04-06T06:21:13;5.10;1.00
15257;DHT22;7731;50.720;6.912;2023-04-06T06:23:44;5.20;1.00
15257;DHT22;7731;50.720;6.912;2023-04-06T06:26:17;5.30;1.00
15257;DHT22;7731;50.720;6.912;2023-04-06T06:28:48;5.30;1.00
15257;DHT22;7731;50.720;6.912;2023-04-06T06:31:20;5.40;1.00
15257;DHT22;7731;50.720;6.912;2023-04-06T06:33:51;5.60;1.00
15257;DHT22;7731;50.720;6.912;2023-04-06T06:36:22;5.70;1.00
15257;DHT22;7731;50.720;6.912;2023-04-06T06:38:52;5.90;1.00
15257;DHT22;7731;50.720;6.912;2023-04-06T06:41:28;6.10;1.00
15257;DHT22;7731;50.720;6.912;2023-04-06T06:43:58;6.40;1.00
15257;DHT22;7731;50.720;6.912;2023-04-06T06:46:30;6.40;1.00
15257;DHT22;7731;50.720;6.912;2023-04-06T06:49:00;6.60;1.00
15257;DHT22;7731;50.720;6.912;2023-04-06T06:51:31;6.80;1.00
15257;DHT22;7731;50.720;6.912;2023-04-06T06:54:01;7.20;99.90
15257;DHT22;7731;50.720;6.912;2023-04-06T06:56:35;7.60;1.00
15257;DHT22;7731;50.720;6.912;2023-04-06T06:59:06;7.80;99.90
15257;DHT22;7731;50.720;6.912;2023-04-06T07:01:39;8.00;1.00
15257;DHT22;7731;50.720;6.912;2023-04-06T07:04:11;8.30;99.90
15257;DHT22;7731;50.720;6.912;2023-04-06T07:06:41;8.50;1.00
15257;DHT22;7731;50.720;6.912;2023-04-06T07:09:11;8.60;1.00
15257;DHT22;7731;50.720;6.912;2023-04-06T07:11:44;8.70;1.00
15257;DHT22;7731;50.720;6.912;2023-04-06T07:14:15;8.80;1.00
15257;DHT22;7731;50.720;6.912;2023-04-06T07:16:46;8.80;1.00
15257;DHT22;7731;50.720;6.912;2023-04-06T07:19:18;8.80;99.90
15257;DHT22;7731;50.720;6.912;2023-04-06T07:21:50;8.90;99.90
15257;DHT22;7731;50.720;6.912;2023-04-06T07:24:21;9.30;1.00
15257;DHT22;7731;50.720;6.912;2023-04-06T07:26:54;10.60;1.00
15257;DHT22;7731;50.720;6.912;2023-04-06T07:29:25;13.50;95.20
15257;DHT22;7731;50.720;6.912;2023-04-06T07:31:56;15.80;99.90
15257;DHT22;7731;50.720;6.912;2023-04-06T07:34:28;17.50;99.90
15257;DHT22;7731;50.720;6.912;2023-04-06T07:36:59;18.00;1.00
15257;DHT22;7731;50.720;6.912;2023-04-06T07:39:31;18.00;1.00
15257;DHT22;7731;50.720;6.912;2023-04-06T07:42:04;18.60;1.00
15257;DHT22;7731;50.720;6.912;2023-04-06T07:44:35;19.20;1.00
15257;DHT22;7731;50.720;6.912;2023-04-06T07:47:05;18.90;1.00
15257;DHT22;7731;50.720;6.912;2023-04-06T07:49:36;18.00;1.00
15257;DHT22;7731;50.720;6.912;2023-04-06T07:52:07;16.40;1.00
15257;DHT22;7731;50.720;6.912;2023-04-06T07:54:37;15.80;1.00
15257;DHT22;7731;50.720;6.912;2023-04-06T07:57:10;15.80;1.00
15257;DHT22;7731;50.720;6.912;2023-04-06T07:59:41;15.90;1.00
15257;DHT22;7731;50.720;6.912;2023-04-06T08:02:11;16.40;1.00
15257;DHT22;7731;50.720;6.912;2023-04-06T08:04:44;17.90;1.00
15257;DHT22;7731;50.720;6.912;2023-04-06T08:07:15;20.40;1.00
15257;DHT22;7731;50.720;6.912;2023-04-06T08:09:45;21.10;1.00
15257;DHT22;7731;50.720;6.912;2023-04-06T08:12:18;22.00;1.00
15257;DHT22;7731;50.720;6.912;2023-04-06T08:14:53;21.70;1.00
15257;DHT22;7731;50.720;6.912;2023-04-06T08:17:26;21.00;1.00
15257;DHT22;7731;50.720;6.912;2023-04-06T08:19:58;20.30;1.00
15257;DHT22;7731;50.720;6.912;2023-04-06T08:22:30;20.10;1.00
15257;DHT22;7731;50.720;6.912;2023-04-06T08:25:00;19.80;1.00
15257;DHT22;7731;50.720;6.912;2023-04-06T08:27:36;19.70;1.00
15257;DHT22;7731;50.720;6.912;2023-04-06T08:30:11;19.60;1.00
15257;DHT22;7731;50.720;6.912;2023-04-06T08:32:43;20.40;1.00
15257;DHT22;7731;50.720;6.912;2023-04-06T08:35:13;19.90;1.00
15257;DHT22;7731;50.720;6.912;2023-04-06T08:37:44;20.60;1.00
15257;DHT22;7731;50.720;6.912;2023-04-06T08:40:15;21.10;1.00
15257;DHT22;7731;50.720;6.912;2023-04-06T08:42:50;21.40;1.00
15257;DHT22;7731;50.720;6.912;2023-04-06T08:45:24;20.60;1.00
15257;DHT22;7731;50.720;6.912;2023-04-06T08:47:57;20.60;1.00
15257;DHT22;7731;50.720;6.912;2023-04-06T08:50:30;20.10;1.00
15257;DHT22;7731;50.720;6.912;2023-04-06T08:53:02;20.60;1.00
15257;DHT22;7731;50.720;6.912;2023-04-06T08:55:34;20.50;1.00
15257;DHT22;7731;50.720;6.912;2023-04-06T08:58:10;20.30;1.00
15257;DHT22;7731;50.720;6.912;2023-04-06T09:00:57;20.10;1.00
15257;DHT22;7731;50.720;6.912;2023-04-06T09:03:34;20.60;1.00
15257;DHT22;7731;50.720;6.912;2023-04-06T09:06:11;20.50;1.00
15257;DHT22;7731;50.720;6.912;2023-04-06T09:08:43;19.90;1.00
15257;DHT22;7731;50.720;6.912;2023-04-06T09:11:15;19.00;1.00
15257;DHT22;7731;50.720;6.912;2023-04-06T09:13:49;18.60;1.00
15257;DHT22;7731;50.720;6.912;2023-04-06T09:16:21;18.30;1.00
15257;DHT22;7731;50.720;6.912;2023-04-06T09:18:53;17.90;1.00
15257;DHT22;7731;50.720;6.912;2023-04-06T09:21:29;17.60;1.00
15257;DHT22;7731;50.720;6.912;2023-04-06T09:24:00;17.80;1.00
15257;DHT22;7731;50.720;6.912;2023-04-06T09:26:31;17.90;1.00
15257;DHT22;7731;50.720;6.912;2023-04-06T09:29:05;17.70;1.00
15257;DHT22;7731;50.720;6.912;2023-04-06T09:31:35;17.60;1.00
15257;DHT22;7731;50.720;6.912;2023-04-06T09:34:06;17.60;1.00
15257;DHT22;7731;50.720;6.912;2023-04-06T09:36:37;17.80;1.00
15257;DHT22;7731;50.720;6.912;2023-04-06T09:39:08;17.60;1.00
15257;DHT22;7731;50.720;6.912;2023-04-06T09:41:39;17.80;1.00
15257;DHT22;7731;50.720;6.912;2023-04-06T09:44:18;18.20;1.00
15257;DHT22;7731;50.720;6.912;2023-04-06T09:46:53;18.40;1.00
15257;DHT22;7731;50.720;6.912;2023-04-06T09:49:28;18.00;1.00
15257;DHT22;7731;50.720;6.912;2023-04-06T09:52:03;17.90;1.00
15257;DHT22;7731;50.720;6.912;2023-04-06T09:54:36;17.90;1.00
15257;DHT22;7731;50.720;6.912;2023-04-06T09:57:13;17.50;1.00
15257;DHT22;7731;50.720;6.912;2023-04-06T10:00:00;17.40;1.00
15257;DHT22;7731;50.720;6.912;2023-04-06T10:02:44;17.60;1.00
15257;DHT22;7731;50.720;6.912;2023-04-06T10:05:24;17.70;1.00
15257;DHT22;7731;50.720;6.912;2023-04-06T10:08:06;18.10;1.00
15257;DHT22;7731;50.720;6.912;2023-04-06T10:10:39;18.00;1.00
15257;DHT22;7731;50.720;6.912;2023-04-06T10:13:11;17.70;1.00
15257;DHT22;7731;50.720;6.912;2023-04-06T10:15:44;17.70;1.00
15257;DHT22;7731;50.720;6.912;2023-04-06T10:18:15;17.20;1.00
15257;DHT22;7731;50.720;6.912;2023-04-06T10:20:50;16.80;1.00
15257;DHT22;7731;50.720;6.912;2023-04-06T10:23:31;16.70;1.00
15257;DHT22;7731;50.720;6.912;2023-04-06T10:26:04;17.20;1.00
15257;DHT22;7731;50.720;6.912;2023-04-06T10:28:36;17.70;1.00
15257;DHT22;7731;50.720;6.912;2023-04-06T10:31:09;18.10;1.00
15257;DHT22;7731;50.720;6.912;2023-04-06T10:33:40;17.70;1.00
15257;DHT22;7731;50.720;6.912;2023-04-06T10:36:12;17.50;1.00
15257;DHT22;7731;50.720;6.912;2023-04-06T10:38:44;17.30;1.00
15257;DHT22;7731;50.720;6.912;2023-04-06T10:41:17;17.40;1.00
15257;DHT22;7731;50.720;6.912;2023-04-06T10:43:55;17.20;1.00
15257;DHT22;7731;50.720;6.912;2023-04-06T10:46:30;17.20;1.00
15257;DHT22;7731;50.720;6.912;2023-04-06T10:49:11;17.30;1.00
15257;DHT22;7731;50.720;6.912;2023-04-06T10:51:42;17.10;1.00
15257;DHT22;7731;50.720;6.912;2023-04-06T10:54:16;17.00;1.00
15257;DHT22;7731;50.720;6.912;2023-04-06T10:56:49;16.90;1.00
15257;DHT22;7731;50.720;6.912;2023-04-06T10:59:20;16.90;1.00
15257;DHT22;7731;50.720;6.912;2023-04-06T11:01:55;17.00;1.00
15257;DHT22;7731;50.720;6.912;2023-04-06T11:04:25;17.00;1.00
15257;DHT22;7731;50.720;6.912;2023-04-06T11:06:56;16.90;1.00
15257;DHT22;7731;50.720;6.912;2023-04-06T11:09:28;16.90;1.00
15257;DHT22;7731;50.720;6.912;2023-04-06T11:12:02;17.00;1.00
15257;DHT22;7731;50.720;6.912;2023-04-06T11:14:33;16.80;1.00
15257;DHT22;7731;50.720;6.912;2023-04-06T11:17:06;16.50;1.00
15257;DHT22;7731;50.720;6.912;2023-04-06T11:19:37;16.60;1.00
15257;DHT22;7731;50.720;6.912;2023-04-06T11:22:07;16.50;1.00
15257;DHT22;7731;50.720;6.912;2023-04-06T11:24:38;16.60;1.00
15257;DHT22;7731;50.720;6.912;2023-04-06T11:27:12;16.60;1.00
15257;DHT22;7731;50.720;6.912;2023-04-06T11:29:43;16.50;1.00
15257;DHT22;7731;50.720;6.912;2023-04-06T11:32:23;16.50;1.20
15257;DHT22;7731;50.720;6.912;2023-04-06T11:34:53;16.90;1.10
15257;DHT22;7731;50.720;6.912;2023-04-06T11:37:26;17.00;1.00
15257;DHT22;7731;50.720;6.912;2023-04-06T11:39:58;16.80;1.00
15257;DHT22;7731;50.720;6.912;2023-04-06T11:42:29;17.10;1.00
15257;DHT22;7731;50.720;6.912;2023-04-06T11:45:00;17.40;1.00
15257;DHT22;7731;50.720;6.912;2023-04-06T11:47:34;17.60;1.00
15257;DHT22;7731;50.720;6.912;2023-04-06T11:50:06;17.50;1.00
15257;DHT22;7731;50.720;6.912;2023-04-06T11:52:41;17.70;1.00
15257;DHT22;7731;50.720;6.912;2023-04-06T11:55:16;17.70;1.00
15257;DHT22;7731;50.720;6.912;2023-04-06T11:57:47;17.60;1.00
15257;DHT22;7731;50.720;6.912;2023-04-06T12:00:20;17.60;1.00
15257;DHT22;7731;50.720;6.912;2023-04-06T12:02:55;17.70;1.00
15257;DHT22;7731;50.720;6.912;2023-04-06T12:05:28;18.00;1.00
15257;DHT22;7731;50.720;6.912;2023-04-06T12:07:59;18.10;1.00
15257;DHT22;7731;50.720;6.912;2023-04-06T12:10:30;17.90;1.00
15257;DHT22;7731;50.720;6.912;2023-04-06T12:13:00;17.70;1.00
15257;DHT22;7731;50.720;6.912;2023-04-06T12:15:31;17.30;1.00
15257;DHT22;7731;50.720;6.912;2023-04-06T12:18:05;17.30;1.00
15257;DHT22;7731;50.720;6.912;2023-04-06T12:20:37;17.30;1.00
15257;DHT22;7731;50.720;6.912;2023-04-06T12:23:07;17.30;1.00
15257;DHT22;7731;50.720;6.912;2023-04-06T12:25:39;17.10;1.00
15257;DHT22;7731;50.720;6.912;2023-04-06T12:28:11;16.60;1.00
15257;DHT22;7731;50.720;6.912;2023-04-06T12:30:44;16.70;1.00
15257;DHT22;7731;50.720;6.912;2023-04-06T12:33:17;16.40;1.00
15257;DHT22;7731;50.720;6.912;2023-04-06T12:35:47;16.10;1.00
15257;DHT22;7731;50.720;6.912;2023-04-06T12:38:18;15.80;20.90
15257;DHT22;7731;50.720;6.912;2023-04-06T12:40:48;15.70;47.80
15257;DHT22;7731;50.720;6.912;2023-04-06T12:43:19;15.60;75.20
15257;DHT22;7731;50.720;6.912;2023-04-06T12:45:51;15.50;98.80
15257;DHT22;7731;50.720;6.912;2023-04-06T12:48:24;15.40;99.90
15257;DHT22;7731;50.720;6.912;2023-04-06T12:50:57;15.40;93.90
15257;DHT22;7731;50.720;6.912;2023-04-06T12:53:28;15.30;97.20
15257;DHT22;7731;50.720;6.912;2023-04-06T12:55:59;15.20;99.90
15257;DHT22;7731;50.720;6.912;2023-04-06T12:58:30;15.00;99.90
15257;DHT22;7731;50.720;6.912;2023-04-06T13:01:05;15.10;99.90
15257;DHT22;7731;50.720;6.912;2023-04-06T13:03:39;15.00;99.90
15257;DHT22;7731;50.720;6.912;2023-04-06T13:06:09;14.90;99.90
15257;DHT22;7731;50.720;6.912;2023-04-06T13:08:42;14.80;99.90
15257;DHT22;7731;50.720;6.912;2023-04-06T13:11:14;14.70;99.90
15257;DHT22;7731;50.720;6.912;2023-04-06T13:13:47;14.60;99.90
15257;DHT22;7731;50.720;6.912;2023-04-06T13:16:17;14.30;99.90
15257;DHT22;7731;50.720;6.912;2023-04-06T13:18:51;14.10;1.00
15257;DHT22;7731;50.720;6.912;2023-04-06T13:21:21;13.80;1.00
15257;DHT22;7731;50.720;6.912;2023-04-06T13:23:51;13.60;31.80
15257;DHT22;7731;50.720;6.912;2023-04-06T13:26:25;13.60;99.90
15257;DHT22;7731;50.720;6.912;2023-04-06T13:28:55;13.60;99.90
15257;DHT22;7731;50.720;6.912;2023-04-06T13:31:26;13.50;99.90
15257;DHT22;7731;50.720;6.912;2023-04-06T13:33:59;13.50;99.90
15257;DHT22;7731;50.720;6.912;2023-04-06T13:36:29;13.60;99.90
15257;DHT22;7731;50.720;6.912;2023-04-06T13:39:00;13.50;99.90
15257;DHT22;7731;50.720;6.912;2023-04-06T13:41:30;13.50;99.90
15257;DHT22;7731;50.720;6.912;2023-04-06T13:44:01;13.40;99.90
15257;DHT22;7731;50.720;6.912;2023-04-06T13:46:31;13.30;1.00
15257;DHT22;7731;50.720;6.912;2023-04-06T13:49:04;13.20;99.90
15257;DHT22;7731;50.720;6.912;2023-04-06T13:51:37;13.20;1.00
15257;DHT22;7731;50.720;6.912;2023-04-06T13:54:08;13.20;99.90
15257;DHT22;7731;50.720;6.912;2023-04-06T13:56:38;13.30;1.00
15257;DHT22;7731;50.720;6.912;2023-04-06T13:59:08;13.10;99.90
15257;DHT22;7731;50.720;6.912;2023-04-06T14:01:39;13.10;99.90
15257;DHT22;7731;50.720;6.912;2023-04-06T14:04:13;13.10;1.00
15257;DHT22;7731;50.720;6.912;2023-04-06T14:06:45;13.10;99.90
15257;DHT22;7731;50.720;6.912;2023-04-06T14:09:16;13.20;10.10
15257;DHT22;7731;50.720;6.912;2023-04-06T14:11:46;13.20;95.90
15257;DHT22;7731;50.720;6.912;2023-04-06T14:14:17;13.20;99.90
15257;DHT22;7731;50.720;6.912;2023-04-06T14:16:48;13.00;1.00
15257;DHT22;7731;50.720;6.912;2023-04-06T14:19:21;12.90;1.00
15257;DHT22;7731;50.720;6.912;2023-04-06T14:21:51;12.70;1.00
15257;DHT22;7731;50.720;6.912;2023-04-06T14:24:23;12.50;1.00
15257;DHT22;7731;50.720;6.912;2023-04-06T14:26:53;12.50;1.00
15257;DHT22;7731;50.720;6.912;2023-04-06T14:29:23;12.60;1.00
15257;DHT22;7731;50.720;6.912;2023-04-06T14:31:54;12.60;1.00
15257;DHT22;7731;50.720;6.912;2023-04-06T14:34:29;12.50;1.00
15257;DHT22;7731;50.720;6.912;2023-04-06T14:36:59;12.50;1.00
15257;DHT22;7731;50.720;6.912;2023-04-06T14:39:32;12.50;1.00
15257;DHT22;7731;50.720;6.912;2023-04-06T14:42:02;12.40;1.00
15257;DHT22;7731;50.720;6.912;2023-04-06T14:44:33;12.40;1.00
15257;DHT22;7731;50.720;6.912;2023-04-06T14:47:05;12.20;1.00
15257;DHT22;7731;50.720;6.912;2023-04-06T14:49:38;12.00;1.00
15257;DHT22;7731;50.720;6.912;2023-04-06T14:52:08;11.90;19.20
15257;DHT22;7731;50.720;6.912;2023-04-06T14:54:39;11.90;5.40
15257;DHT22;7731;50.720;6.912;2023-04-06T14:57:09;11.80;33.50
15257;DHT22;7731;50.720;6.912;2023-04-06T14:59:42;11.80;20.60
15257;DHT22;7731;50.720;6.912;2023-04-06T15:02:12;11.70;40.50
15257;DHT22;7731;50.720;6.912;2023-04-06T15:04:45;11.70;47.20
15257;DHT22;7731;50.720;6.912;2023-04-06T15:07:15;11.40;42.10
15257;DHT22;7731;50.720;6.912;2023-04-06T15:09:46;11.10;56.50
15257;DHT22;7731;50.720;6.912;2023-04-06T15:12:17;11.00;74.20
15257;DHT22;7731;50.720;6.912;2023-04-06T15:14:47;10.90;83.60
15257;DHT22;7731;50.720;6.912;2023-04-06T15:17:18;11.00;87.40
15257;DHT22;7731;50.720;6.912;2023-04-06T15:19:51;10.90;89.00
15257;DHT22;7731;50.720;6.912;2023-04-06T15:22:22;10.80;91.10
15257;DHT22;7731;50.720;6.912;2023-04-06T15:24:52;10.80;99.90
15257;DHT22;7731;50.720;6.912;2023-04-06T15:27:22;10.70;92.00
15257;DHT22;7731;50.720;6.912;2023-04-06T15:29:54;10.70;99.90
15257;DHT22;7731;50.720;6.912;2023-04-06T15:32:25;10.50;99.90
15257;DHT22;7731;50.720;6.912;2023-04-06T15:34:59;10.40;99.90
15257;DHT22;7731;50.720;6.912;2023-04-06T15:37:29;10.30;99.90
15257;DHT22;7731;50.720;6.912;2023-04-06T15:40:00;10.40;99.90
15257;DHT22;7731;50.720;6.912;2023-04-06T15:42:30;10.40;99.90
15257;DHT22;7731;50.720;6.912;2023-04-06T15:45:00;10.40;99.90
15257;DHT22;7731;50.720;6.912;2023-04-06T15:47:34;10.50;99.90
15257;DHT22;7731;50.720;6.912;2023-04-06T15:50:10;10.40;99.90
15257;DHT22;7731;50.720;6.912;2023-04-06T15:52:41;10.40;99.90
15257;DHT22;7731;50.720;6.912;2023-04-06T15:55:11;10.40;99.90
15257;DHT22;7731;50.720;6.912;2023-04-06T15:57:41;10.20;99.90
15257;DHT22;7731;50.720;6.912;2023-04-06T16:00:13;10.10;99.90
15257;DHT22;7731;50.720;6.912;2023-04-06T16:02:44;10.00;99.90
15257;DHT22;7731;50.720;6.912;2023-04-06T16:05:17;10.10;99.90
15257;DHT22;7731;50.720;6.912;2023-04-06T16:07:48;10.10;99.90
15257;DHT22;7731;50.720;6.912;2023-04-06T16:10:22;10.00;99.90
15257;DHT22;7731;50.720;6.912;2023-04-06T16:12:52;9.90;99.90
15257;DHT22;7731;50.720;6.912;2023-04-06T16:15:22;10.00;99.90
15257;DHT22;7731;50.720;6.912;2023-04-06T16:17:53;10.00;99.90
15257;DHT22;7731;50.720;6.912;2023-04-06T16:20:25;10.00;99.90
15257;DHT22;7731;50.720;6.912;2023-04-06T16:22:56;9.90;99.90
15257;DHT22;7731;50.720;6.912;2023-04-06T16:25:26;9.80;99.90
15257;DHT22;7731;50.720;6.912;2023-04-06T16:27:58;9.80;99.90
15257;DHT22;7731;50.720;6.912;2023-04-06T16:30:29;9.70;99.90